EWG3GY HEMA-LOWS
Flight info
| Callsign | EWG3GY |
|---|---|
| Flight time | N/A |
| Altitude | 34000 |
| Route | MAK V730 MEMPO L300 LXR P751 MMA L613 TANSA UL617 SIT DCT MADEX/N0453F360 DCT NEVRA DCT AGISA DCT TALAS DCT PEP DCT ENFAR DCT AKIKA DCT SOLGU DCT EVTON DCT GORPA DCT INGID DCT RASTA RASTA2R |
| Aircraft | A320/M-SDE3FGHIRWY/LB1 |
Departure
| Time | 2026-05-08 15:23 |
|---|---|
| Airport | Marsa Alam International Airport (HEMA) |
Arrival
| Time | N/A |
|---|---|
| Airport | Salzburg Airport (LOWS) |
| Time | Latitude | Longitude | Altitude | Speed | Heading |
|---|---|---|---|---|---|
| 2026-05-08 14:41 | 25.55470 | 34.59089 | 242 ft | 0 kts | 60° |
| 2026-05-08 15:13 | 25.55460 | 34.59069 | 243 ft | 4 kts | 62° |
| 2026-05-08 15:13 | 25.55448 | 34.59043 | 243 ft | 4 kts | 69° |
| 2026-05-08 15:13 | 25.55443 | 34.59024 | 243 ft | 2 kts | 99° |
| 2026-05-08 15:14 | 25.55446 | 34.59012 | 243 ft | 2 kts | 135° |
| 2026-05-08 15:14 | 25.55454 | 34.59004 | 243 ft | 2 kts | 147° |
| 2026-05-08 15:14 | 25.55464 | 34.58998 | 243 ft | 2 kts | 150° |
| 2026-05-08 15:14 | 25.55466 | 34.58997 | 242 ft | 0 kts | 150° |
| 2026-05-08 15:18 | 25.55453 | 34.59004 | 242 ft | 6 kts | 150° |
| 2026-05-08 15:18 | 25.55418 | 34.59026 | 242 ft | 6 kts | 150° |
| 2026-05-08 15:18 | 25.55369 | 34.59058 | 242 ft | 8 kts | 149° |
| 2026-05-08 15:19 | 25.55319 | 34.59090 | 242 ft | 11 kts | 149° |
| 2026-05-08 15:19 | 25.55251 | 34.59133 | 242 ft | 10 kts | 155° |
| 2026-05-08 15:19 | 25.55185 | 34.59098 | 243 ft | 12 kts | 241° |
| 2026-05-08 15:19 | 25.55155 | 34.59037 | 250 ft | 6 kts | 240° |
| 2026-05-08 15:20 | 25.55113 | 34.59004 | 254 ft | 10 kts | 188° |
| 2026-05-08 15:20 | 25.55035 | 34.59043 | 254 ft | 14 kts | 149° |
| 2026-05-08 15:20 | 25.54939 | 34.59103 | 254 ft | 18 kts | 151° |
| 2026-05-08 15:20 | 25.54828 | 34.59175 | 251 ft | 20 kts | 149° |
| 2026-05-08 15:21 | 25.54708 | 34.59253 | 249 ft | 14 kts | 148° |
| 2026-05-08 15:21 | 25.54632 | 34.59256 | 250 ft | 10 kts | 222° |
| 2026-05-08 15:21 | 25.54601 | 34.59198 | 252 ft | 11 kts | 241° |
| 2026-05-08 15:21 | 25.54580 | 34.59110 | 254 ft | 12 kts | 296° |
| 2026-05-08 15:22 | 25.54655 | 34.59056 | 255 ft | 17 kts | 330° |
| 2026-05-08 15:22 | 25.54945 | 34.58869 | 257 ft | 83 kts | 330° |
| 2026-05-08 15:22 | 25.55618 | 34.58440 | 260 ft | 138 kts | 329° |
| 2026-05-08 15:22 | 25.56583 | 34.57828 | 335 ft | 174 kts | 331° |
| 2026-05-08 15:23 | 25.57620 | 34.57190 | 1051 ft | 170 kts | 327° |
| 2026-05-08 15:23 | 25.58448 | 34.56293 | 1649 ft | 173 kts | 291° |
| 2026-05-08 15:23 | 25.58601 | 34.54944 | 1978 ft | 187 kts | 264° |
| 2026-05-08 15:23 | 25.58348 | 34.53451 | 2194 ft | 210 kts | 256° |
| 2026-05-08 15:24 | 25.57927 | 34.51787 | 2430 ft | 236 kts | 254° |
| 2026-05-08 15:24 | 25.57412 | 34.49979 | 2922 ft | 251 kts | 253° |
| 2026-05-08 15:24 | 25.56881 | 34.48129 | 3744 ft | 254 kts | 253° |
| 2026-05-08 15:24 | 25.56356 | 34.46257 | 4521 ft | 256 kts | 254° |
| 2026-05-08 15:25 | 25.55836 | 34.44352 | 5326 ft | 259 kts | 254° |
| 2026-05-08 15:25 | 25.55323 | 34.42435 | 6103 ft | 262 kts | 254° |
| 2026-05-08 15:25 | 25.54806 | 34.40493 | 6897 ft | 265 kts | 254° |
| 2026-05-08 15:25 | 25.54283 | 34.38525 | 7650 ft | 267 kts | 255° |
| 2026-05-08 15:26 | 25.53760 | 34.36536 | 8369 ft | 271 kts | 255° |
| 2026-05-08 15:26 | 25.53231 | 34.34524 | 9097 ft | 274 kts | 255° |
| 2026-05-08 15:26 | 25.52694 | 34.32490 | 9806 ft | 277 kts | 255° |
| 2026-05-08 15:26 | 25.52148 | 34.30424 | 10374 ft | 286 kts | 255° |
| 2026-05-08 15:27 | 25.51568 | 34.28222 | 10523 ft | 309 kts | 254° |
| 2026-05-08 15:27 | 25.50945 | 34.25859 | 10644 ft | 331 kts | 254° |
| 2026-05-08 15:27 | 25.50277 | 34.23336 | 10833 ft | 350 kts | 254° |
| 2026-05-08 15:27 | 25.49580 | 34.20719 | 11330 ft | 357 kts | 254° |
| 2026-05-08 15:28 | 25.48875 | 34.18076 | 11959 ft | 360 kts | 254° |
| 2026-05-08 15:28 | 25.48404 | 34.16307 | 12366 ft | 362 kts | 254° |
| 2026-05-08 15:28 | 25.47445 | 34.12709 | 13174 ft | 367 kts | 254° |
| 2026-05-08 15:28 | 25.46971 | 34.10920 | 13558 ft | 369 kts | 255° |
| 2026-05-08 15:29 | 25.46266 | 34.08162 | 14132 ft | 372 kts | 255° |
| 2026-05-08 15:29 | 25.45581 | 34.05395 | 14685 ft | 375 kts | 255° |
| 2026-05-08 15:29 | 25.44898 | 34.02603 | 15219 ft | 378 kts | 255° |
| 2026-05-08 15:29 | 25.44203 | 33.99780 | 15743 ft | 381 kts | 255° |
| 2026-05-08 15:30 | 25.43500 | 33.96942 | 16262 ft | 384 kts | 255° |
| 2026-05-08 15:30 | 25.42905 | 33.94063 | 16744 ft | 386 kts | 263° |
| 2026-05-08 15:30 | 25.42789 | 33.91083 | 17206 ft | 389 kts | 273° |
| 2026-05-08 15:30 | 25.43199 | 33.88119 | 17660 ft | 392 kts | 284° |
| 2026-05-08 15:31 | 25.44020 | 33.85230 | 18122 ft | 395 kts | 287° |
| 2026-05-08 15:31 | 25.44870 | 33.82332 | 18571 ft | 398 kts | 287° |
| 2026-05-08 15:31 | 25.45717 | 33.79410 | 19003 ft | 400 kts | 287° |
| 2026-05-08 15:31 | 25.46563 | 33.76465 | 19432 ft | 403 kts | 287° |
| 2026-05-08 15:32 | 25.47414 | 33.73502 | 19847 ft | 405 kts | 287° |
| 2026-05-08 15:32 | 25.48274 | 33.70520 | 20262 ft | 408 kts | 287° |
| 2026-05-08 15:32 | 25.49138 | 33.67520 | 20656 ft | 410 kts | 287° |
| 2026-05-08 15:32 | 25.50008 | 33.64499 | 21040 ft | 413 kts | 287° |
| 2026-05-08 15:33 | 25.50873 | 33.61497 | 21423 ft | 415 kts | 287° |
| 2026-05-08 15:33 | 25.51755 | 33.58435 | 21812 ft | 418 kts | 287° |
| 2026-05-08 15:33 | 25.52637 | 33.55366 | 22184 ft | 420 kts | 287° |
| 2026-05-08 15:33 | 25.53524 | 33.52277 | 22544 ft | 422 kts | 287° |
| 2026-05-08 15:34 | 25.54415 | 33.49169 | 22890 ft | 424 kts | 287° |
| 2026-05-08 15:34 | 25.55308 | 33.46055 | 23227 ft | 426 kts | 287° |
| 2026-05-08 15:34 | 25.56208 | 33.42921 | 23555 ft | 428 kts | 287° |
| 2026-05-08 15:34 | 25.57111 | 33.39770 | 23877 ft | 430 kts | 287° |
| 2026-05-08 15:35 | 25.58018 | 33.36608 | 24191 ft | 432 kts | 287° |
| 2026-05-08 15:35 | 25.58927 | 33.33430 | 24501 ft | 434 kts | 287° |
| 2026-05-08 15:35 | 25.59836 | 33.30234 | 24802 ft | 436 kts | 287° |
| 2026-05-08 15:35 | 25.60747 | 33.27022 | 25098 ft | 438 kts | 287° |
| 2026-05-08 15:36 | 25.61664 | 33.23797 | 25380 ft | 440 kts | 287° |
| 2026-05-08 15:36 | 25.62588 | 33.20554 | 25664 ft | 442 kts | 287° |
| 2026-05-08 15:36 | 25.63514 | 33.17302 | 25936 ft | 444 kts | 287° |
| 2026-05-08 15:36 | 25.64445 | 33.14029 | 26197 ft | 445 kts | 287° |
| 2026-05-08 15:37 | 25.65378 | 33.10751 | 26438 ft | 447 kts | 287° |
| 2026-05-08 15:37 | 25.66314 | 33.07451 | 26683 ft | 449 kts | 287° |
| 2026-05-08 15:37 | 25.67251 | 33.04140 | 26927 ft | 451 kts | 287° |
| 2026-05-08 15:37 | 25.68189 | 33.00822 | 27168 ft | 452 kts | 287° |
| 2026-05-08 15:38 | 25.69132 | 32.97479 | 27397 ft | 454 kts | 287° |
| 2026-05-08 15:38 | 25.70075 | 32.94139 | 27626 ft | 456 kts | 287° |
| 2026-05-08 15:38 | 25.71027 | 32.90777 | 27860 ft | 457 kts | 287° |
| 2026-05-08 15:38 | 25.71979 | 32.87415 | 28151 ft | 457 kts | 287° |
| 2026-05-08 15:39 | 25.72916 | 32.84102 | 28479 ft | 456 kts | 287° |
| 2026-05-08 15:39 | 25.73863 | 32.80752 | 28799 ft | 455 kts | 288° |
| 2026-05-08 15:39 | 25.75078 | 32.77519 | 29097 ft | 455 kts | 297° |
| 2026-05-08 15:39 | 25.76740 | 32.74534 | 29396 ft | 455 kts | 306° |
| 2026-05-08 15:40 | 25.78744 | 32.71811 | 29685 ft | 455 kts | 309° |
| 2026-05-08 15:40 | 25.80776 | 32.69125 | 29976 ft | 455 kts | 309° |
| 2026-05-08 15:40 | 25.82805 | 32.66434 | 30252 ft | 454 kts | 308° |
| 2026-05-08 15:40 | 25.84825 | 32.63742 | 30547 ft | 454 kts | 308° |
| 2026-05-08 15:41 | 25.86845 | 32.61041 | 30811 ft | 454 kts | 308° |
| 2026-05-08 15:41 | 25.88859 | 32.58347 | 31075 ft | 454 kts | 308° |
| 2026-05-08 15:41 | 25.90874 | 32.55651 | 31321 ft | 454 kts | 308° |
| 2026-05-08 15:41 | 25.92889 | 32.52954 | 31597 ft | 453 kts | 308° |
| 2026-05-08 15:42 | 25.94903 | 32.50263 | 31880 ft | 452 kts | 308° |
| 2026-05-08 15:42 | 25.96913 | 32.47580 | 32159 ft | 451 kts | 308° |
| 2026-05-08 15:42 | 25.98926 | 32.44895 | 32433 ft | 450 kts | 308° |
| 2026-05-08 15:42 | 26.00923 | 32.42223 | 32691 ft | 450 kts | 308° |
| 2026-05-08 15:43 | 26.02920 | 32.39543 | 32957 ft | 449 kts | 308° |
| 2026-05-08 15:43 | 26.04911 | 32.36870 | 33219 ft | 448 kts | 308° |
| 2026-05-08 15:43 | 26.06898 | 32.34202 | 33469 ft | 448 kts | 308° |
| 2026-05-08 15:43 | 26.08884 | 32.31538 | 33712 ft | 447 kts | 308° |
| 2026-05-08 15:44 | 26.10874 | 32.28870 | 33928 ft | 447 kts | 308° |
| 2026-05-08 15:44 | 26.12862 | 32.26201 | 34002 ft | 449 kts | 308° |
| 2026-05-08 15:44 | 26.16825 | 32.20875 | 34010 ft | 449 kts | 308° |
| 2026-05-08 15:45 | 26.20809 | 32.15515 | 34009 ft | 448 kts | 308° |
| 2026-05-08 15:45 | 26.24779 | 32.10168 | 34008 ft | 448 kts | 308° |
| 2026-05-08 15:46 | 26.28745 | 32.04817 | 34009 ft | 448 kts | 308° |
| 2026-05-08 15:46 | 26.32715 | 31.99448 | 34009 ft | 448 kts | 308° |
| 2026-05-08 15:47 | 26.36680 | 31.94086 | 34006 ft | 448 kts | 308° |
| 2026-05-08 15:47 | 26.40648 | 31.88720 | 34001 ft | 449 kts | 308° |
| 2026-05-08 15:48 | 26.46597 | 31.80647 | 34008 ft | 449 kts | 308° |
| 2026-05-08 15:49 | 26.50525 | 31.75299 | 34009 ft | 448 kts | 308° |
| 2026-05-08 15:49 | 26.54484 | 31.69926 | 34010 ft | 448 kts | 308° |
| 2026-05-08 15:50 | 26.58438 | 31.64549 | 34008 ft | 448 kts | 308° |
| 2026-05-08 15:50 | 26.62382 | 31.59167 | 34006 ft | 447 kts | 308° |
| 2026-05-08 15:51 | 26.66320 | 31.53786 | 34005 ft | 447 kts | 308° |
| 2026-05-08 15:51 | 26.70256 | 31.48403 | 34003 ft | 447 kts | 308° |
| 2026-05-08 15:52 | 26.74198 | 31.43016 | 34001 ft | 447 kts | 308° |
| 2026-05-08 15:52 | 26.78136 | 31.37629 | 34000 ft | 447 kts | 308° |
| 2026-05-08 15:53 | 26.82073 | 31.32236 | 34002 ft | 447 kts | 308° |
| 2026-05-08 15:53 | 26.86008 | 31.26833 | 33998 ft | 448 kts | 308° |
| 2026-05-08 15:54 | 26.89945 | 31.21420 | 33996 ft | 448 kts | 308° |
| 2026-05-08 15:54 | 26.93885 | 31.15999 | 33997 ft | 449 kts | 308° |
| 2026-05-08 15:55 | 26.97821 | 31.10571 | 34003 ft | 449 kts | 308° |
| 2026-05-08 15:55 | 27.03981 | 31.02664 | 34008 ft | 451 kts | 319° |
| 2026-05-08 15:56 | 27.09042 | 30.98548 | 34011 ft | 452 kts | 323° |
| 2026-05-08 15:56 | 27.14167 | 30.94466 | 34011 ft | 452 kts | 323° |
| 2026-05-08 15:57 | 27.19302 | 30.90381 | 34011 ft | 452 kts | 323° |
| 2026-05-08 15:57 | 27.24433 | 30.86297 | 34014 ft | 452 kts | 323° |
| 2026-05-08 15:58 | 27.29551 | 30.82208 | 34016 ft | 451 kts | 323° |
| 2026-05-08 15:58 | 27.34672 | 30.78119 | 34012 ft | 451 kts | 323° |
| 2026-05-08 15:59 | 27.39783 | 30.74029 | 34014 ft | 451 kts | 323° |
| 2026-05-08 15:59 | 27.44889 | 30.69931 | 34012 ft | 450 kts | 323° |
| 2026-05-08 16:00 | 27.49994 | 30.65834 | 34009 ft | 451 kts | 323° |
| 2026-05-08 16:00 | 27.55102 | 30.61738 | 34009 ft | 451 kts | 323° |
| 2026-05-08 16:01 | 27.60211 | 30.57638 | 34007 ft | 451 kts | 323° |
| 2026-05-08 16:01 | 27.65316 | 30.53528 | 34006 ft | 451 kts | 323° |
| 2026-05-08 16:02 | 27.70409 | 30.49417 | 34004 ft | 450 kts | 323° |
| 2026-05-08 16:02 | 27.75513 | 30.45300 | 34004 ft | 451 kts | 323° |
| 2026-05-08 16:03 | 27.80622 | 30.41181 | 34005 ft | 451 kts | 323° |
| 2026-05-08 16:03 | 27.85725 | 30.37064 | 34006 ft | 451 kts | 323° |
| 2026-05-08 16:04 | 27.90828 | 30.32937 | 34006 ft | 451 kts | 323° |
| 2026-05-08 16:04 | 27.95919 | 30.28802 | 34005 ft | 451 kts | 322° |
| 2026-05-08 16:05 | 28.01009 | 30.24660 | 34005 ft | 451 kts | 323° |
| 2026-05-08 16:05 | 28.06074 | 30.20551 | 34005 ft | 451 kts | 323° |
| 2026-05-08 16:06 | 28.11170 | 30.16415 | 34005 ft | 451 kts | 323° |
| 2026-05-08 16:06 | 28.16268 | 30.12267 | 34005 ft | 451 kts | 323° |
| 2026-05-08 16:07 | 28.21359 | 30.08114 | 34005 ft | 451 kts | 322° |
| 2026-05-08 16:07 | 28.26443 | 30.03951 | 34005 ft | 451 kts | 322° |
| 2026-05-08 16:08 | 28.31533 | 29.99791 | 34004 ft | 451 kts | 322° |
| 2026-05-08 16:08 | 28.36621 | 29.95634 | 34002 ft | 450 kts | 322° |
| 2026-05-08 16:09 | 28.40838 | 29.92182 | 34001 ft | 450 kts | 322° |
| 2026-05-08 16:09 | 28.46782 | 29.87315 | 33999 ft | 450 kts | 322° |
| 2026-05-08 16:10 | 28.51862 | 29.83137 | 33997 ft | 450 kts | 322° |
| 2026-05-08 16:10 | 28.56935 | 29.78959 | 33997 ft | 450 kts | 322° |
| 2026-05-08 16:11 | 28.62005 | 29.74780 | 33996 ft | 450 kts | 322° |
| 2026-05-08 16:11 | 28.67080 | 29.70605 | 33996 ft | 450 kts | 322° |
| 2026-05-08 16:12 | 28.72154 | 29.66424 | 33997 ft | 450 kts | 322° |
| 2026-05-08 16:12 | 28.76373 | 29.62944 | 33998 ft | 450 kts | 322° |
| 2026-05-08 16:13 | 28.81446 | 29.58748 | 33999 ft | 451 kts | 322° |
| 2026-05-08 16:13 | 28.86514 | 29.54542 | 33999 ft | 451 kts | 322° |
| 2026-05-08 16:14 | 28.91585 | 29.50330 | 34000 ft | 451 kts | 322° |
| 2026-05-08 16:14 | 28.96663 | 29.46121 | 34002 ft | 451 kts | 322° |
| 2026-05-08 16:15 | 29.01737 | 29.41898 | 34005 ft | 451 kts | 322° |
| 2026-05-08 16:15 | 29.06819 | 29.37662 | 34007 ft | 452 kts | 322° |
| 2026-05-08 16:16 | 29.11898 | 29.33438 | 34006 ft | 452 kts | 322° |
| 2026-05-08 16:16 | 29.16946 | 29.29168 | 34010 ft | 451 kts | 321° |
| 2026-05-08 16:17 | 29.21944 | 29.24809 | 34009 ft | 451 kts | 321° |
| 2026-05-08 16:17 | 29.26897 | 29.20471 | 34009 ft | 451 kts | 321° |
| 2026-05-08 16:18 | 29.31894 | 29.16131 | 34009 ft | 451 kts | 321° |
| 2026-05-08 16:18 | 29.36908 | 29.11784 | 34010 ft | 451 kts | 321° |
| 2026-05-08 16:19 | 29.41913 | 29.07430 | 34010 ft | 451 kts | 321° |
| 2026-05-08 16:19 | 29.46914 | 29.03071 | 34011 ft | 451 kts | 321° |
| 2026-05-08 16:20 | 29.51905 | 28.98699 | 34011 ft | 451 kts | 321° |
| 2026-05-08 16:20 | 29.56892 | 28.94318 | 34012 ft | 451 kts | 321° |
| 2026-05-08 16:21 | 29.61881 | 28.89936 | 34009 ft | 451 kts | 321° |
| 2026-05-08 16:21 | 29.66868 | 28.85551 | 34014 ft | 451 kts | 321° |
| 2026-05-08 16:22 | 29.71860 | 28.81166 | 34014 ft | 451 kts | 321° |
| 2026-05-08 16:22 | 29.76846 | 28.76783 | 34017 ft | 451 kts | 321° |
| 2026-05-08 16:23 | 29.81837 | 28.72391 | 34017 ft | 451 kts | 321° |
| 2026-05-08 16:23 | 29.86791 | 28.68021 | 34021 ft | 451 kts | 321° |
| 2026-05-08 16:24 | 29.91765 | 28.63614 | 34015 ft | 451 kts | 321° |
| 2026-05-08 16:24 | 29.96735 | 28.59202 | 34019 ft | 451 kts | 321° |
| 2026-05-08 16:25 | 30.01710 | 28.54795 | 34026 ft | 451 kts | 321° |
| 2026-05-08 16:25 | 30.06683 | 28.50390 | 34026 ft | 451 kts | 321° |
| 2026-05-08 16:26 | 30.11651 | 28.45967 | 34017 ft | 451 kts | 321° |
| 2026-05-08 16:26 | 30.16612 | 28.41544 | 34027 ft | 451 kts | 321° |
| 2026-05-08 16:27 | 30.21579 | 28.37121 | 34024 ft | 451 kts | 321° |
| 2026-05-08 16:27 | 30.26550 | 28.32700 | 34021 ft | 451 kts | 321° |
| 2026-05-08 16:28 | 30.31514 | 28.28269 | 34025 ft | 450 kts | 321° |
| 2026-05-08 16:28 | 30.36475 | 28.23833 | 34021 ft | 450 kts | 321° |
| 2026-05-08 16:29 | 30.41429 | 28.19403 | 34023 ft | 450 kts | 321° |
| 2026-05-08 16:29 | 30.46388 | 28.14955 | 34020 ft | 450 kts | 321° |
| 2026-05-08 16:30 | 30.51344 | 28.10501 | 34015 ft | 451 kts | 321° |
| 2026-05-08 16:30 | 30.56297 | 28.06046 | 34015 ft | 451 kts | 321° |
| 2026-05-08 16:31 | 30.61261 | 28.01581 | 34016 ft | 451 kts | 321° |
| 2026-05-08 16:31 | 30.66220 | 27.97112 | 34019 ft | 451 kts | 321° |
| 2026-05-08 16:32 | 30.71154 | 27.92657 | 34016 ft | 451 kts | 320° |
| 2026-05-08 16:32 | 30.76107 | 27.88183 | 34016 ft | 451 kts | 320° |
| 2026-05-08 16:33 | 30.81066 | 27.83694 | 34015 ft | 451 kts | 320° |
| 2026-05-08 16:33 | 30.86022 | 27.79199 | 34012 ft | 451 kts | 320° |
| 2026-05-08 16:34 | 30.90969 | 27.74710 | 34009 ft | 451 kts | 320° |
| 2026-05-08 16:34 | 30.95884 | 27.70249 | 34011 ft | 451 kts | 320° |
| 2026-05-08 16:35 | 31.00826 | 27.65749 | 34011 ft | 451 kts | 320° |
| 2026-05-08 16:35 | 31.05760 | 27.61244 | 34012 ft | 451 kts | 320° |
| 2026-05-08 16:36 | 31.10735 | 27.56705 | 34011 ft | 451 kts | 320° |
| 2026-05-08 16:36 | 31.15027 | 27.51455 | 34010 ft | 447 kts | 303° |
| 2026-05-08 16:37 | 31.18490 | 27.45488 | 34010 ft | 447 kts | 303° |
| 2026-05-08 16:37 | 31.21986 | 27.39491 | 34008 ft | 446 kts | 303° |
| 2026-05-08 16:38 | 31.25471 | 27.33483 | 34006 ft | 446 kts | 303° |
| 2026-05-08 16:38 | 31.29070 | 27.27582 | 34000 ft | 447 kts | 311° |
| 2026-05-08 16:39 | 31.33990 | 27.23135 | 34000 ft | 451 kts | 332° |
| 2026-05-08 16:39 | 31.40001 | 27.21065 | 33998 ft | 455 kts | 351° |
| 2026-05-08 16:40 | 31.46287 | 27.20159 | 33995 ft | 456 kts | 351° |
| 2026-05-08 16:40 | 31.52586 | 27.19231 | 33995 ft | 456 kts | 351° |
| 2026-05-08 16:41 | 31.58883 | 27.18298 | 33997 ft | 456 kts | 351° |
| 2026-05-08 16:42 | 31.68340 | 27.16905 | 34000 ft | 456 kts | 351° |
| 2026-05-08 16:42 | 31.74646 | 27.15980 | 34000 ft | 457 kts | 351° |
| 2026-05-08 16:43 | 31.80959 | 27.15050 | 34001 ft | 456 kts | 351° |
| 2026-05-08 16:43 | 31.87257 | 27.14119 | 33998 ft | 456 kts | 351° |
| 2026-05-08 16:44 | 31.93563 | 27.13179 | 34001 ft | 456 kts | 351° |
| 2026-05-08 16:44 | 31.99868 | 27.12248 | 34000 ft | 456 kts | 351° |
| 2026-05-08 16:45 | 32.06176 | 27.11317 | 34000 ft | 456 kts | 351° |
| 2026-05-08 16:45 | 32.12480 | 27.10385 | 33999 ft | 456 kts | 351° |
| 2026-05-08 16:46 | 32.18784 | 27.09447 | 33998 ft | 456 kts | 351° |
| 2026-05-08 16:46 | 32.25085 | 27.08507 | 33997 ft | 456 kts | 351° |
| 2026-05-08 16:47 | 32.31386 | 27.07562 | 33998 ft | 456 kts | 351° |
| 2026-05-08 16:47 | 32.37643 | 27.06631 | 33996 ft | 456 kts | 351° |
| 2026-05-08 16:48 | 32.43938 | 27.05692 | 33994 ft | 456 kts | 351° |
| 2026-05-08 16:48 | 32.50239 | 27.04750 | 33997 ft | 456 kts | 351° |
| 2026-05-08 16:49 | 32.56534 | 27.03807 | 33995 ft | 456 kts | 351° |
| 2026-05-08 16:49 | 32.62828 | 27.02853 | 33993 ft | 456 kts | 351° |
| 2026-05-08 16:50 | 32.69123 | 27.01904 | 33995 ft | 456 kts | 351° |
| 2026-05-08 16:50 | 32.75419 | 27.00951 | 33993 ft | 456 kts | 351° |
| 2026-05-08 16:51 | 32.81705 | 26.99996 | 33993 ft | 456 kts | 351° |
| 2026-05-08 16:51 | 32.88006 | 26.99046 | 33993 ft | 456 kts | 351° |
| 2026-05-08 16:52 | 32.94302 | 26.98099 | 33993 ft | 456 kts | 351° |
| 2026-05-08 16:52 | 33.00562 | 26.97150 | 33993 ft | 456 kts | 351° |
| 2026-05-08 16:53 | 33.10002 | 26.95696 | 33994 ft | 456 kts | 351° |
| 2026-05-08 16:53 | 33.16290 | 26.94726 | 33993 ft | 456 kts | 351° |
| 2026-05-08 16:54 | 33.22580 | 26.93752 | 33995 ft | 456 kts | 351° |
| 2026-05-08 16:54 | 33.28875 | 26.92774 | 33995 ft | 456 kts | 351° |
| 2026-05-08 16:55 | 33.35169 | 26.91796 | 33996 ft | 456 kts | 351° |
| 2026-05-08 16:55 | 33.41466 | 26.90827 | 33995 ft | 456 kts | 351° |
| 2026-05-08 16:56 | 33.47761 | 26.89849 | 33996 ft | 456 kts | 351° |
| 2026-05-08 16:56 | 33.54052 | 26.88864 | 33997 ft | 456 kts | 351° |
| 2026-05-08 16:57 | 33.59287 | 26.88052 | 33995 ft | 456 kts | 351° |
| 2026-05-08 16:57 | 33.65587 | 26.87065 | 33998 ft | 456 kts | 351° |
| 2026-05-08 16:58 | 33.71879 | 26.86074 | 33999 ft | 456 kts | 351° |
| 2026-05-08 16:58 | 33.78178 | 26.85088 | 34000 ft | 456 kts | 351° |
| 2026-05-08 16:59 | 33.84476 | 26.84107 | 34000 ft | 456 kts | 351° |
| 2026-05-08 16:59 | 33.90774 | 26.83126 | 34001 ft | 456 kts | 351° |
| 2026-05-08 17:00 | 33.97074 | 26.82134 | 34000 ft | 456 kts | 349° |
| 2026-05-08 17:00 | 34.03085 | 26.79905 | 34001 ft | 451 kts | 332° |
| 2026-05-08 17:01 | 34.08706 | 26.76631 | 33999 ft | 452 kts | 332° |
| 2026-05-08 17:01 | 34.14372 | 26.73334 | 33998 ft | 452 kts | 332° |
| 2026-05-08 17:02 | 34.20036 | 26.70043 | 34001 ft | 452 kts | 332° |
| 2026-05-08 17:02 | 34.25708 | 26.66740 | 34001 ft | 452 kts | 332° |
| 2026-05-08 17:03 | 34.31369 | 26.63440 | 34002 ft | 452 kts | 332° |
| 2026-05-08 17:03 | 34.37028 | 26.60133 | 34001 ft | 452 kts | 332° |
| 2026-05-08 17:04 | 34.42696 | 26.56811 | 34002 ft | 452 kts | 332° |
| 2026-05-08 17:04 | 34.48359 | 26.53490 | 34003 ft | 452 kts | 332° |
| 2026-05-08 17:05 | 34.54020 | 26.50163 | 34004 ft | 452 kts | 332° |
| 2026-05-08 17:05 | 34.59687 | 26.46838 | 34005 ft | 452 kts | 332° |
| 2026-05-08 17:06 | 34.65353 | 26.43508 | 34007 ft | 452 kts | 332° |
| 2026-05-08 17:06 | 34.70986 | 26.40184 | 34009 ft | 452 kts | 332° |
| 2026-05-08 17:07 | 34.76645 | 26.36838 | 34011 ft | 452 kts | 332° |
| 2026-05-08 17:07 | 34.82311 | 26.33491 | 34009 ft | 453 kts | 332° |
| 2026-05-08 17:08 | 34.87976 | 26.30136 | 34013 ft | 453 kts | 332° |
| 2026-05-08 17:08 | 34.93636 | 26.26777 | 34012 ft | 453 kts | 332° |
| 2026-05-08 17:09 | 34.99302 | 26.23410 | 34012 ft | 453 kts | 332° |
| 2026-05-08 17:09 | 35.04969 | 26.20033 | 34011 ft | 453 kts | 332° |
| 2026-05-08 17:10 | 35.10707 | 26.16812 | 33998 ft | 455 kts | 336° |
| 2026-05-08 17:10 | 35.16616 | 26.13987 | 33995 ft | 457 kts | 338° |
| 2026-05-08 17:11 | 35.22561 | 26.11222 | 34014 ft | 457 kts | 337° |
| 2026-05-08 17:11 | 35.28426 | 26.08386 | 34024 ft | 456 kts | 336° |
| 2026-05-08 17:12 | 35.34300 | 26.05473 | 34024 ft | 455 kts | 336° |
| 2026-05-08 17:12 | 35.40173 | 26.02560 | 34026 ft | 455 kts | 336° |
| 2026-05-08 17:13 | 35.46044 | 25.99659 | 34028 ft | 455 kts | 336° |
| 2026-05-08 17:13 | 35.51912 | 25.96764 | 34027 ft | 455 kts | 336° |
| 2026-05-08 17:14 | 35.57786 | 25.93868 | 34024 ft | 454 kts | 336° |
| 2026-05-08 17:14 | 35.63658 | 25.90957 | 34028 ft | 454 kts | 336° |
| 2026-05-08 17:15 | 35.69517 | 25.88046 | 34030 ft | 454 kts | 336° |
| 2026-05-08 17:15 | 35.75381 | 25.85125 | 34022 ft | 454 kts | 336° |
| 2026-05-08 17:16 | 35.81204 | 25.82230 | 34017 ft | 454 kts | 336° |
| 2026-05-08 17:16 | 35.87060 | 25.79305 | 34023 ft | 454 kts | 336° |
| 2026-05-08 17:17 | 35.92915 | 25.76382 | 34019 ft | 454 kts | 336° |
| 2026-05-08 17:17 | 35.98769 | 25.73456 | 34022 ft | 454 kts | 336° |
| 2026-05-08 17:18 | 36.04627 | 25.70523 | 34020 ft | 454 kts | 336° |
| 2026-05-08 17:18 | 36.10482 | 25.67589 | 34014 ft | 454 kts | 336° |
| 2026-05-08 17:19 | 36.16331 | 25.64652 | 34017 ft | 454 kts | 336° |
| 2026-05-08 17:19 | 36.22174 | 25.61707 | 34016 ft | 453 kts | 336° |
| 2026-05-08 17:20 | 36.28016 | 25.58757 | 34014 ft | 453 kts | 336° |
| 2026-05-08 17:20 | 36.33826 | 25.55823 | 34015 ft | 453 kts | 336° |
| 2026-05-08 17:21 | 36.39671 | 25.52868 | 34016 ft | 453 kts | 336° |
| 2026-05-08 17:21 | 36.45513 | 25.49907 | 34011 ft | 453 kts | 336° |
| 2026-05-08 17:22 | 36.51350 | 25.46946 | 34015 ft | 453 kts | 336° |
| 2026-05-08 17:22 | 36.57185 | 25.43984 | 34008 ft | 453 kts | 336° |
| 2026-05-08 17:23 | 36.63030 | 25.41011 | 34012 ft | 453 kts | 336° |
| 2026-05-08 17:23 | 36.68849 | 25.37993 | 34007 ft | 453 kts | 335° |
| 2026-05-08 17:24 | 36.74627 | 25.34843 | 34008 ft | 453 kts | 334° |
| 2026-05-08 17:24 | 36.80405 | 25.31662 | 34012 ft | 454 kts | 334° |
| 2026-05-08 17:25 | 36.86182 | 25.28507 | 34014 ft | 454 kts | 334° |
| 2026-05-08 17:25 | 36.91978 | 25.25353 | 34020 ft | 454 kts | 335° |
| 2026-05-08 17:26 | 36.97767 | 25.22198 | 34021 ft | 454 kts | 334° |
| 2026-05-08 17:26 | 37.03563 | 25.19031 | 34012 ft | 454 kts | 334° |
| 2026-05-08 17:27 | 37.09352 | 25.15866 | 34011 ft | 454 kts | 334° |
| 2026-05-08 17:27 | 37.15103 | 25.12706 | 34015 ft | 454 kts | 334° |
| 2026-05-08 17:28 | 37.20889 | 25.09528 | 34019 ft | 454 kts | 334° |
| 2026-05-08 17:28 | 37.26664 | 25.06355 | 34016 ft | 453 kts | 334° |
| 2026-05-08 17:29 | 37.32448 | 25.03171 | 34015 ft | 453 kts | 334° |
| 2026-05-08 17:29 | 37.38220 | 24.99986 | 34015 ft | 453 kts | 334° |
| 2026-05-08 17:30 | 37.43992 | 24.96794 | 34013 ft | 453 kts | 334° |
| 2026-05-08 17:30 | 37.49750 | 24.93601 | 34011 ft | 452 kts | 334° |
| 2026-05-08 17:31 | 37.55515 | 24.90399 | 34008 ft | 452 kts | 334° |
| 2026-05-08 17:31 | 37.61280 | 24.87199 | 34007 ft | 452 kts | 334° |
| 2026-05-08 17:32 | 37.66998 | 24.84019 | 34004 ft | 452 kts | 334° |
| 2026-05-08 17:32 | 37.72757 | 24.80809 | 34003 ft | 452 kts | 334° |
| 2026-05-08 17:33 | 37.78510 | 24.77590 | 34002 ft | 452 kts | 334° |
| 2026-05-08 17:33 | 37.84269 | 24.74371 | 34001 ft | 452 kts | 334° |
| 2026-05-08 17:34 | 37.90022 | 24.71149 | 33999 ft | 452 kts | 334° |
| 2026-05-08 17:34 | 37.95769 | 24.67919 | 33998 ft | 452 kts | 334° |
| 2026-05-08 17:35 | 38.01524 | 24.64681 | 33997 ft | 452 kts | 334° |
| 2026-05-08 17:35 | 38.07269 | 24.61446 | 33998 ft | 452 kts | 334° |
| 2026-05-08 17:36 | 38.13019 | 24.58199 | 33997 ft | 452 kts | 334° |
| 2026-05-08 17:36 | 38.18654 | 24.54676 | 33994 ft | 450 kts | 327° |
| 2026-05-08 17:37 | 38.24031 | 24.50603 | 33995 ft | 450 kts | 327° |
| 2026-05-08 17:37 | 38.29418 | 24.46520 | 33995 ft | 450 kts | 327° |
| 2026-05-08 17:38 | 38.34802 | 24.42442 | 33995 ft | 450 kts | 327° |
| 2026-05-08 17:38 | 38.40184 | 24.38361 | 33995 ft | 450 kts | 327° |
| 2026-05-08 17:39 | 38.45563 | 24.34265 | 33993 ft | 450 kts | 327° |
| 2026-05-08 17:39 | 38.50935 | 24.30161 | 33996 ft | 450 kts | 327° |
| 2026-05-08 17:40 | 38.56316 | 24.26059 | 33996 ft | 450 kts | 327° |
| 2026-05-08 17:40 | 38.61695 | 24.21947 | 33997 ft | 450 kts | 327° |
| 2026-05-08 17:41 | 38.67067 | 24.17828 | 33996 ft | 450 kts | 327° |
| 2026-05-08 17:41 | 38.72442 | 24.13698 | 33997 ft | 450 kts | 327° |
| 2026-05-08 17:42 | 38.77815 | 24.09567 | 33998 ft | 450 kts | 327° |
| 2026-05-08 17:42 | 38.83183 | 24.05428 | 33999 ft | 451 kts | 327° |
| 2026-05-08 17:43 | 38.87647 | 24.01984 | 33999 ft | 451 kts | 327° |
| 2026-05-08 17:43 | 38.93016 | 23.97828 | 33998 ft | 451 kts | 327° |
| 2026-05-08 17:44 | 38.98389 | 23.93665 | 34001 ft | 451 kts | 327° |
| 2026-05-08 17:44 | 39.03762 | 23.89502 | 34001 ft | 451 kts | 327° |
| 2026-05-08 17:45 | 39.09136 | 23.85338 | 34002 ft | 451 kts | 327° |
| 2026-05-08 17:45 | 39.14514 | 23.81156 | 34266 ft | 451 kts | 327° |
| 2026-05-08 17:46 | 39.17198 | 23.79061 | 34553 ft | 451 kts | 327° |
| 2026-05-08 17:46 | 39.19874 | 23.76968 | 34821 ft | 450 kts | 327° |
| 2026-05-08 17:46 | 39.22552 | 23.74873 | 35090 ft | 449 kts | 327° |
| 2026-05-08 17:46 | 39.25222 | 23.72783 | 35333 ft | 449 kts | 327° |
| 2026-05-08 17:47 | 39.27887 | 23.70694 | 35576 ft | 448 kts | 327° |
| 2026-05-08 17:47 | 39.30553 | 23.68600 | 35805 ft | 448 kts | 327° |
| 2026-05-08 17:47 | 39.33216 | 23.66510 | 35970 ft | 448 kts | 327° |
| 2026-05-08 17:47 | 39.35875 | 23.64422 | 36008 ft | 448 kts | 327° |
| 2026-05-08 17:48 | 39.41197 | 23.60243 | 36008 ft | 447 kts | 327° |
| 2026-05-08 17:48 | 39.46509 | 23.56067 | 36008 ft | 447 kts | 327° |
| 2026-05-08 17:49 | 39.51825 | 23.51881 | 36008 ft | 447 kts | 327° |
| 2026-05-08 17:49 | 39.57130 | 23.47682 | 36008 ft | 447 kts | 327° |
| 2026-05-08 17:50 | 39.62446 | 23.43483 | 36007 ft | 447 kts | 327° |
| 2026-05-08 17:50 | 39.67762 | 23.39279 | 36006 ft | 447 kts | 327° |
| 2026-05-08 17:51 | 39.73012 | 23.35069 | 36006 ft | 446 kts | 323° |
| 2026-05-08 17:51 | 39.77888 | 23.30111 | 36004 ft | 445 kts | 320° |
| 2026-05-08 17:52 | 39.82728 | 23.25085 | 36007 ft | 445 kts | 320° |
| 2026-05-08 17:53 | 39.89992 | 23.17509 | 36005 ft | 445 kts | 320° |
| 2026-05-08 17:53 | 39.94822 | 23.12444 | 36007 ft | 445 kts | 320° |
| 2026-05-08 17:54 | 39.99627 | 23.07419 | 36007 ft | 445 kts | 320° |
| 2026-05-08 17:54 | 40.04462 | 23.02347 | 36007 ft | 445 kts | 320° |
| 2026-05-08 17:55 | 40.09283 | 22.97274 | 36008 ft | 446 kts | 320° |
| 2026-05-08 17:55 | 40.14110 | 22.92189 | 36010 ft | 446 kts | 320° |
| 2026-05-08 17:56 | 40.18931 | 22.87096 | 36013 ft | 445 kts | 319° |
| 2026-05-08 17:56 | 40.23753 | 22.81995 | 36011 ft | 446 kts | 320° |
| 2026-05-08 17:57 | 40.28578 | 22.76891 | 36013 ft | 446 kts | 319° |
| 2026-05-08 17:57 | 40.33396 | 22.71777 | 36014 ft | 446 kts | 319° |
| 2026-05-08 17:58 | 40.38216 | 22.66655 | 36014 ft | 446 kts | 319° |
| 2026-05-08 17:58 | 40.43025 | 22.61529 | 36014 ft | 446 kts | 319° |
| 2026-05-08 17:59 | 40.47838 | 22.56390 | 36013 ft | 446 kts | 319° |
| 2026-05-08 17:59 | 40.52616 | 22.51282 | 36013 ft | 446 kts | 319° |
| 2026-05-08 18:00 | 40.57431 | 22.46120 | 36012 ft | 446 kts | 319° |
| 2026-05-08 18:00 | 40.64631 | 22.38373 | 36013 ft | 446 kts | 319° |
| 2026-05-08 18:01 | 40.69435 | 22.33199 | 36014 ft | 446 kts | 319° |
| 2026-05-08 18:01 | 40.74234 | 22.28028 | 36013 ft | 445 kts | 319° |
| 2026-05-08 18:02 | 40.78223 | 22.23724 | 36012 ft | 445 kts | 319° |
| 2026-05-08 18:02 | 40.83822 | 22.17660 | 36011 ft | 445 kts | 319° |
| 2026-05-08 18:03 | 40.88614 | 22.12458 | 36009 ft | 445 kts | 319° |
| 2026-05-08 18:03 | 40.93401 | 22.07253 | 36003 ft | 446 kts | 319° |
| 2026-05-08 18:04 | 40.98182 | 22.02040 | 36001 ft | 446 kts | 319° |
| 2026-05-08 18:04 | 41.02971 | 21.96815 | 35995 ft | 446 kts | 319° |
| 2026-05-08 18:05 | 41.07637 | 21.91457 | 35980 ft | 447 kts | 311° |
| 2026-05-08 18:05 | 41.11444 | 21.84949 | 35985 ft | 448 kts | 305° |
| 2026-05-08 18:06 | 41.15165 | 21.78300 | 35995 ft | 449 kts | 305° |
| 2026-05-08 18:06 | 41.18890 | 21.71633 | 36010 ft | 449 kts | 305° |
| 2026-05-08 18:07 | 41.22609 | 21.64970 | 36017 ft | 449 kts | 305° |
| 2026-05-08 18:07 | 41.26322 | 21.58296 | 36013 ft | 449 kts | 305° |
| 2026-05-08 18:08 | 41.30032 | 21.51614 | 36017 ft | 449 kts | 305° |
| 2026-05-08 18:08 | 41.33737 | 21.44920 | 36022 ft | 448 kts | 304° |
| 2026-05-08 18:09 | 41.37207 | 21.38042 | 36023 ft | 447 kts | 301° |
| 2026-05-08 18:09 | 41.40474 | 21.30987 | 36023 ft | 447 kts | 300° |
| 2026-05-08 18:10 | 41.43739 | 21.23937 | 36020 ft | 447 kts | 301° |
| 2026-05-08 18:10 | 41.47062 | 21.16919 | 36004 ft | 449 kts | 301° |
| 2026-05-08 18:11 | 41.50414 | 21.09884 | 36010 ft | 449 kts | 301° |
| 2026-05-08 18:11 | 41.53745 | 21.02851 | 36008 ft | 449 kts | 301° |
| 2026-05-08 18:12 | 41.57062 | 20.95794 | 36016 ft | 448 kts | 301° |
| 2026-05-08 18:12 | 41.60361 | 20.88784 | 36016 ft | 448 kts | 301° |
| 2026-05-08 18:13 | 41.63680 | 20.81712 | 36003 ft | 449 kts | 301° |
| 2026-05-08 18:13 | 41.67004 | 20.74610 | 35998 ft | 451 kts | 301° |
| 2026-05-08 18:14 | 41.70328 | 20.67493 | 35996 ft | 451 kts | 301° |
| 2026-05-08 18:14 | 41.73651 | 20.60353 | 36012 ft | 452 kts | 301° |
| 2026-05-08 18:15 | 41.77171 | 20.53369 | 35993 ft | 454 kts | 310° |